createdAt,value
2018-11-20T00:00:05.714Z,27.6
2018-11-20T00:02:07.904Z,27.6
2018-11-20T00:04:05.585Z,27.6
2018-11-20T00:06:05.295Z,27.6
2018-11-20T00:08:10.114Z,27.6
2018-11-20T00:10:05.826Z,27.6
2018-11-20T00:12:10.544Z,27.6
2018-11-20T00:14:05.229Z,27.6
2018-11-20T00:16:10.683Z,27.6
2018-11-20T00:18:05.601Z,27.6
2018-11-20T00:20:05.386Z,27.5
2018-11-20T00:22:07.669Z,27.5
2018-11-20T00:24:05.384Z,27.5
2018-11-20T00:26:05.091Z,27.7
2018-11-20T00:28:10.917Z,27.7
2018-11-20T00:30:07.705Z,27.7
2018-11-20T00:32:05.452Z,27.7
2018-11-20T00:34:05.512Z,27.7
2018-11-20T00:36:05.495Z,27.7
2018-11-20T00:38:05.193Z,27.7
2018-11-20T00:40:08.445Z,27.6
2018-11-20T00:42:05.153Z,27.6
2018-11-20T00:44:13.432Z,27.6
2018-11-20T00:46:05.371Z,27.6
2018-11-20T00:48:05.099Z,27.6
2018-11-20T00:50:05.783Z,27.6
2018-11-20T00:52:05.498Z,27.6
2018-11-20T00:54:05.873Z,27.6
2018-11-20T00:56:13.568Z,27.6
2018-11-20T00:58:05.409Z,27.6
2018-11-20T01:00:05.114Z,27.4
2018-11-20T01:02:05.815Z,27.4
2018-11-20T01:04:05.578Z,27.4
2018-11-20T01:06:05.289Z,27.5
2018-11-20T01:08:05.960Z,27.5
2018-11-20T01:10:05.694Z,27.6
2018-11-20T01:12:05.396Z,27.6
2018-11-20T01:14:05.775Z,27.5
2018-11-20T01:16:05.594Z,27.5
2018-11-20T01:18:05.508Z,27.5
2018-11-20T01:20:05.780Z,27.5
2018-11-20T01:22:05.670Z,27.5
2018-11-20T01:24:10.644Z,27.4
2018-11-20T01:26:07.862Z,27.4
2018-11-20T01:28:05.617Z,27.4
2018-11-20T01:30:05.353Z,27.4
2018-11-20T01:32:05.075Z,27.4
2018-11-20T01:34:05.332Z,27.4
2018-11-20T01:36:06.033Z,27.3
2018-11-20T01:38:05.781Z,27.3
2018-11-20T01:40:05.474Z,27.3
2018-11-20T01:42:05.185Z,27.3
2018-11-20T01:44:05.891Z,27.3
2018-11-20T01:46:05.623Z,27.3
2018-11-20T01:48:05.268Z,27.3
2018-11-20T01:50:07.991Z,27.4
2018-11-20T01:52:05.671Z,27.2
2018-11-20T01:54:05.349Z,27.4
2018-11-20T01:56:05.652Z,27.4
2018-11-20T01:58:10.449Z,27.2
2018-11-20T02:00:08.246Z,27.2
2018-11-20T02:02:05.915Z,27.4
2018-11-20T02:04:05.815Z,27.4
2018-11-20T02:06:05.906Z,27.4
2018-11-20T02:08:05.639Z,27.3
2018-11-20T02:10:08.001Z,27.4
2018-11-20T02:12:06.549Z,27.4
2018-11-20T02:14:08.545Z,27.3
2018-11-20T02:16:08.462Z,27.3
2018-11-20T02:18:05.541Z,27.3
2018-11-20T02:20:05.296Z,27.3
2018-11-20T02:22:05.999Z,27.3
2018-11-20T02:24:08.210Z,27.3
2018-11-20T02:26:08.532Z,27.3
2018-11-20T02:28:05.417Z,27.3
2018-11-20T02:30:05.187Z,27.3
2018-11-20T02:32:08.503Z,27.3
2018-11-20T02:34:05.859Z,27.3
2018-11-20T02:36:05.591Z,27.3
2018-11-20T02:38:07.796Z,27.1
2018-11-20T02:40:05.498Z,27.1
2018-11-20T02:42:05.200Z,27.1
2018-11-20T02:44:06.333Z,27.3
2018-11-20T02:46:12.727Z,27.1
2018-11-20T02:48:05.449Z,27.1
2018-11-20T02:50:05.120Z,27.1
2018-11-20T02:52:08.523Z,27.3
2018-11-20T02:54:05.208Z,27.3
2018-11-20T02:56:05.891Z,27.2
2018-11-20T02:58:08.137Z,27.3
2018-11-20T03:00:05.880Z,27.3
2018-11-20T03:02:05.607Z,27.2
2018-11-20T03:04:07.927Z,27.2
2018-11-20T03:06:05.195Z,27.2
2018-11-20T03:08:05.963Z,27.2
2018-11-20T03:10:05.655Z,27
2018-11-20T03:12:05.360Z,27.1
2018-11-20T03:14:08.121Z,27.2
2018-11-20T03:16:08.378Z,27.2
2018-11-20T03:18:05.290Z,27.2
2018-11-20T03:20:05.035Z,27.2
2018-11-20T03:22:05.763Z,27.2
2018-11-20T03:24:07.976Z,27.1
2018-11-20T03:26:08.256Z,27.1
2018-11-20T03:28:08.069Z,27.1
2018-11-20T03:30:05.804Z,27.1
2018-11-20T03:32:05.545Z,27.1
2018-11-20T03:34:05.286Z,27.1
2018-11-20T03:36:06.091Z,27.1
2018-11-20T03:38:05.134Z,27.1
2018-11-20T03:40:05.969Z,27.1
2018-11-20T03:42:05.648Z,27.1
2018-11-20T03:44:05.332Z,27.1
2018-11-20T03:46:07.537Z,27
2018-11-20T03:48:05.549Z,27
2018-11-20T03:50:05.376Z,27
2018-11-20T03:52:05.099Z,27
2018-11-20T03:54:05.858Z,27
2018-11-20T03:56:05.076Z,27.1
2018-11-20T03:58:05.902Z,27.1
2018-11-20T04:00:05.751Z,27.1
2018-11-20T04:02:07.987Z,26.9
2018-11-20T04:04:05.253Z,26.9
2018-11-20T04:06:08.664Z,27
2018-11-20T04:08:05.340Z,27
2018-11-20T04:10:07.605Z,27
2018-11-20T04:12:07.848Z,27
2018-11-20T04:14:05.125Z,27
2018-11-20T04:16:08.346Z,26.9
2018-11-20T04:18:05.788Z,26.9
2018-11-20T04:20:05.503Z,26.9
2018-11-20T04:22:05.241Z,27
2018-11-20T04:24:05.935Z,26.9
2018-11-20T04:26:05.695Z,26.9
2018-11-20T04:28:05.498Z,26.9
2018-11-20T04:30:05.827Z,26.9
2018-11-20T04:32:05.571Z,26.9
2018-11-20T04:34:10.337Z,26.9
2018-11-20T04:36:05.566Z,26.9
2018-11-20T04:38:07.847Z,26.9
2018-11-20T04:40:05.563Z,26.9
2018-11-20T04:42:07.851Z,26.9
2018-11-20T04:44:05.548Z,26.9
2018-11-20T04:46:05.364Z,26.9
2018-11-20T04:48:05.075Z,26.9
2018-11-20T04:50:06.014Z,26.9
2018-11-20T04:52:06.018Z,26.9
2018-11-20T04:54:05.755Z,26.9
2018-11-20T04:56:05.436Z,26.9
2018-11-20T04:58:07.712Z,26.9
2018-11-20T05:00:05.638Z,26.9
2018-11-20T05:02:05.341Z,26.9
2018-11-20T05:04:05.084Z,26.9
2018-11-20T05:06:05.760Z,26.9
2018-11-20T05:08:05.499Z,26.8
2018-11-20T05:10:05.307Z,26.9
2018-11-20T05:12:08.539Z,26.9
2018-11-20T05:14:05.306Z,26.8
2018-11-20T05:16:08.081Z,26.8
2018-11-20T05:18:08.491Z,26.8
2018-11-20T05:20:05.701Z,26.8
2018-11-20T05:22:05.432Z,26.8
2018-11-20T05:24:05.136Z,26.9
2018-11-20T05:26:05.412Z,27
2018-11-20T05:28:05.226Z,26.8
2018-11-20T05:30:05.239Z,26.8
2018-11-20T05:32:05.980Z,26.8
2018-11-20T05:34:05.662Z,26.8
2018-11-20T05:36:05.375Z,26.8
2018-11-20T05:38:05.117Z,26.8
2018-11-20T05:40:05.844Z,26.8
2018-11-20T05:42:07.815Z,26.8
2018-11-20T05:44:05.546Z,26.8
2018-11-20T05:46:05.243Z,26.8
2018-11-20T05:48:05.433Z,26.8
2018-11-20T05:50:05.101Z,26.8
2018-11-20T05:52:05.788Z,26.9
2018-11-20T05:54:09.059Z,26.9
2018-11-20T05:56:09.273Z,27
2018-11-20T05:58:05.270Z,27
2018-11-20T06:00:05.909Z,27.2
2018-11-20T06:02:08.134Z,27.1
2018-11-20T06:04:05.941Z,27.1
2018-11-20T06:06:11.082Z,27.2
2018-11-20T06:08:05.150Z,27.3
2018-11-20T06:10:05.834Z,27.3
2018-11-20T06:12:05.464Z,27.2
2018-11-20T06:14:07.818Z,27.3
2018-11-20T06:16:05.121Z,27.1
2018-11-20T06:18:07.637Z,27.2
2018-11-20T06:20:10.985Z,27.2
2018-11-20T06:22:05.200Z,27.2
2018-11-20T06:24:05.902Z,27.2
2018-11-20T06:26:05.195Z,27.2
2018-11-20T06:28:05.953Z,27.2
2018-11-20T06:30:05.196Z,27.2
2018-11-20T06:32:08.027Z,27.3
2018-11-20T06:34:05.322Z,27.4
2018-11-20T06:36:04.993Z,27.2
2018-11-20T06:38:05.661Z,27.2
2018-11-20T06:40:05.383Z,27.3
2018-11-20T06:42:08.147Z,27.3
2018-11-20T06:44:05.949Z,27.3
2018-11-20T06:46:08.216Z,27.3
2018-11-20T06:48:06.066Z,27.3
2018-11-20T06:50:05.283Z,27.3
2018-11-20T06:52:05.954Z,27.3
2018-11-20T06:54:08.131Z,27.2
2018-11-20T06:56:05.855Z,27.4
2018-11-20T06:58:10.613Z,27.5
2018-11-20T07:00:10.976Z,27.5
2018-11-20T07:02:05.225Z,27.3
2018-11-20T07:04:05.998Z,27.2
2018-11-20T07:06:08.401Z,27.3
2018-11-20T07:08:11.370Z,27.3
2018-11-20T07:10:10.616Z,27.4
2018-11-20T07:12:08.090Z,27.3
2018-11-20T07:14:10.910Z,27.4
2018-11-20T07:16:06.957Z,27.4
2018-11-20T07:18:08.076Z,27.4
2018-11-20T07:20:05.795Z,27.4
2018-11-20T07:22:08.062Z,27.5
2018-11-20T07:24:08.243Z,27.4
2018-11-20T07:26:05.518Z,27.4
2018-11-20T07:28:05.260Z,27.4
2018-11-20T07:30:05.789Z,27.4
2018-11-20T07:32:06.005Z,27.3
2018-11-20T07:34:05.734Z,27.2
2018-11-20T07:36:05.584Z,27.4
2018-11-20T07:38:05.559Z,27.4
2018-11-20T07:40:07.902Z,27.3
2018-11-20T07:42:05.597Z,27.3
2018-11-20T07:44:08.013Z,27.3
2018-11-20T07:46:05.659Z,27.3
2018-11-20T07:48:05.375Z,27.3
2018-11-20T07:50:05.084Z,27.2
2018-11-20T07:52:05.904Z,27.2
2018-11-20T07:54:05.571Z,27.1
2018-11-20T07:56:06.152Z,27.2
2018-11-20T07:58:05.702Z,27.1
2018-11-20T08:00:05.373Z,27.2
2018-11-20T08:02:05.236Z,27.2
2018-11-20T08:04:05.195Z,27.2
2018-11-20T08:06:05.843Z,27
2018-11-20T08:08:05.529Z,27.1
2018-11-20T08:10:05.208Z,27.1
2018-11-20T08:12:05.500Z,27
2018-11-20T08:14:05.172Z,27.2
2018-11-20T08:16:06.233Z,27.1
2018-11-20T08:18:05.676Z,27.1
2018-11-20T08:20:05.381Z,27.1
2018-11-20T08:22:05.128Z,27.1
2018-11-20T08:24:05.811Z,27
2018-11-20T08:26:05.490Z,27.1
2018-11-20T08:28:05.825Z,27
2018-11-20T08:30:05.549Z,27
2018-11-20T08:32:05.277Z,27
2018-11-20T08:34:06.128Z,26.9
2018-11-20T08:36:05.995Z,27
2018-11-20T08:38:05.682Z,27
2018-11-20T08:40:05.639Z,26.9
2018-11-20T08:42:08.258Z,26.9
2018-11-20T08:44:05.974Z,26.9
2018-11-20T08:46:07.891Z,26.9
2018-11-20T08:48:06.082Z,26.9
2018-11-20T08:50:05.585Z,26.9
2018-11-20T08:52:05.239Z,26.8
2018-11-20T08:54:06.001Z,26.8
2018-11-20T08:56:05.819Z,26.8
2018-11-20T08:58:05.508Z,26.8
2018-11-20T09:00:05.407Z,26.8
2018-11-20T09:02:05.146Z,26.8
2018-11-20T09:04:05.986Z,26.8
2018-11-20T09:06:06.726Z,26.8
2018-11-20T09:08:08.506Z,26.8
2018-11-20T09:10:06.001Z,26.8
2018-11-20T09:12:05.671Z,26.8
2018-11-20T09:14:05.357Z,26.7
2018-11-20T09:16:05.084Z,26.8
2018-11-20T09:18:08.534Z,26.8
2018-11-20T09:20:18.232Z,26.8
2018-11-20T09:22:05.368Z,26.8
2018-11-20T09:24:05.059Z,26.8
2018-11-20T09:26:05.746Z,26.8
2018-11-20T09:28:05.856Z,26.7
2018-11-20T09:30:05.986Z,26.7
2018-11-20T09:32:05.202Z,26.7
2018-11-20T09:34:05.829Z,26.6
2018-11-20T09:36:08.437Z,26.7
2018-11-20T09:38:05.187Z,26.7
2018-11-20T09:40:08.476Z,26.8
2018-11-20T09:42:05.660Z,26.8
2018-11-20T09:44:05.484Z,26.8
2018-11-20T09:46:07.745Z,26.8
2018-11-20T09:48:05.456Z,26.8
2018-11-20T09:50:05.106Z,26.9
2018-11-20T09:52:05.937Z,26.7
2018-11-20T09:54:08.287Z,26.7
2018-11-20T09:56:05.102Z,26.7
2018-11-20T09:58:08.390Z,26.7
2018-11-20T10:00:05.112Z,26.7
2018-11-20T10:02:05.824Z,26.8
2018-11-20T10:04:05.034Z,26.7
2018-11-20T10:06:05.711Z,26.7
2018-11-20T10:08:07.983Z,26.7
2018-11-20T10:10:08.197Z,26.7
2018-11-20T10:12:05.414Z,26.7
2018-11-20T10:14:05.420Z,26.6
2018-11-20T10:16:05.580Z,26.7
2018-11-20T10:18:05.597Z,26.6
2018-11-20T10:20:10.392Z,26.6
2018-11-20T10:22:05.282Z,26.6
2018-11-20T10:24:05.409Z,26.6
2018-11-20T10:26:05.510Z,26.8
2018-11-20T10:28:05.762Z,26.6
2018-11-20T10:32:05.729Z,26.7
2018-11-20T10:34:06.075Z,26.6
2018-11-20T10:36:05.817Z,26.7
2018-11-20T10:38:08.049Z,26.5
2018-11-20T10:40:08.285Z,26.7
2018-11-20T10:42:06.051Z,26.5
2018-11-20T10:44:08.297Z,26.6
2018-11-20T10:46:05.472Z,26.6
2018-11-20T10:48:07.997Z,26.4
2018-11-20T10:50:07.749Z,26.5
2018-11-20T10:52:05.490Z,26.5
2018-11-20T10:54:05.816Z,26.7
2018-11-20T10:56:05.510Z,26.6
2018-11-20T10:58:05.250Z,26.5
2018-11-20T11:00:05.501Z,26.6
2018-11-20T11:02:05.770Z,26.5
2018-11-20T11:04:05.459Z,26.5
2018-11-20T11:06:05.233Z,26.6
2018-11-20T11:08:06.224Z,26.5
2018-11-20T11:10:06.012Z,26.5
2018-11-20T11:12:08.554Z,26.5
2018-11-20T11:14:05.762Z,26.6
2018-11-20T11:16:05.035Z,26.6
2018-11-20T11:18:05.910Z,26.6
2018-11-20T11:20:05.705Z,26.5
2018-11-20T11:22:05.461Z,26.6
2018-11-20T11:24:05.172Z,26.5
2018-11-20T11:26:05.823Z,26.4
2018-11-20T11:28:10.130Z,26.5
2018-11-20T11:30:11.012Z,26.4
2018-11-20T11:32:13.336Z,26.5
2018-11-20T11:34:05.040Z,26.5
2018-11-20T11:36:10.794Z,26.4
2018-11-20T11:38:05.515Z,26.6
2018-11-20T11:40:05.289Z,26.6
2018-11-20T11:42:08.543Z,26.4
2018-11-20T11:44:05.276Z,26.4
2018-11-20T11:46:05.984Z,26.6
2018-11-20T11:48:08.253Z,26.6
2018-11-20T11:50:05.937Z,26.4
2018-11-20T11:52:08.155Z,26.4
2018-11-20T11:54:08.461Z,26.7
2018-11-20T11:56:05.161Z,26.5
2018-11-20T11:58:05.959Z,26.5
2018-11-20T12:00:07.861Z,26.6
2018-11-20T12:06:05.679Z,26.7
2018-11-20T12:08:05.396Z,26.8
2018-11-20T12:10:12.877Z,26.8
2018-11-20T12:12:08.124Z,26.8
2018-11-20T12:14:05.838Z,26.8
2018-11-20T12:16:05.478Z,26.8
2018-11-20T12:18:06.302Z,26.8
2018-11-20T12:20:11.151Z,26.8
2018-11-20T12:22:05.389Z,26.8
2018-11-20T12:24:05.105Z,26.8
2018-11-20T12:26:08.335Z,26.9
2018-11-20T12:28:05.107Z,26.9
2018-11-20T12:30:07.844Z,26.8
2018-11-20T12:32:08.963Z,26.8
2018-11-20T12:34:05.748Z,26.8
2018-11-20T12:36:08.013Z,26.8
2018-11-20T12:38:05.819Z,26.8
2018-11-20T12:40:10.558Z,26.8
2018-11-20T12:42:05.355Z,26.8
2018-11-20T12:44:08.116Z,26.7
2018-11-20T12:46:05.890Z,26.6
2018-11-20T12:48:05.589Z,26.6
2018-11-20T12:50:05.286Z,26.6
2018-11-20T12:52:06.376Z,26.7
2018-11-20T12:54:05.132Z,26.7
2018-11-20T12:56:05.796Z,26.6
2018-11-20T12:58:08.000Z,26.7
2018-11-20T13:00:05.207Z,26.6
2018-11-20T13:02:11.088Z,26.6
2018-11-20T13:04:05.824Z,26.6
2018-11-20T13:06:05.545Z,26.6
2018-11-20T13:08:05.250Z,26.6
2018-11-20T13:10:05.428Z,26.5
2018-11-20T13:12:05.133Z,26.6
2018-11-20T13:14:06.060Z,26.6
2018-11-20T13:16:05.836Z,26.6
2018-11-20T13:18:11.280Z,26.5
2018-11-20T13:20:10.529Z,26.5
2018-11-20T13:22:05.353Z,26.5
2018-11-20T13:24:05.088Z,26.5
2018-11-20T13:26:10.561Z,26.5
2018-11-20T13:28:05.271Z,26.5
2018-11-20T13:30:08.478Z,26.5
2018-11-20T13:32:05.422Z,26.5
2018-11-20T13:34:05.393Z,26.5
2018-11-20T13:36:05.071Z,26.5
2018-11-20T13:38:08.274Z,26.4
2018-11-20T13:40:08.527Z,26.4
2018-11-20T13:42:05.677Z,26.4
2018-11-20T13:44:05.687Z,26.4
2018-11-20T13:46:05.922Z,26.4
2018-11-20T13:48:10.285Z,26.3
2018-11-20T13:50:05.943Z,26.3
2018-11-20T13:52:05.659Z,26.4
2018-11-20T13:54:05.858Z,26.3
2018-11-20T13:56:05.578Z,26.3
2018-11-20T13:58:05.295Z,26.3
2018-11-20T14:00:08.594Z,26.4
2018-11-20T14:02:05.241Z,26.4
2018-11-20T14:04:06.060Z,26.3
2018-11-20T14:06:05.837Z,26.2
2018-11-20T14:08:10.559Z,26.2
2018-11-20T14:10:10.369Z,26.2
2018-11-20T14:12:05.064Z,26.2
2018-11-20T14:14:05.732Z,26.2
2018-11-20T14:16:05.978Z,26.2
2018-11-20T14:18:05.999Z,26.3
2018-11-20T14:20:10.402Z,26.1
2018-11-20T14:22:08.180Z,26.1
2018-11-20T14:24:05.912Z,26.1
2018-11-20T14:26:05.619Z,26.1
2018-11-20T14:28:05.369Z,26
2018-11-20T14:30:07.561Z,26.1
2018-11-20T14:32:05.232Z,26.1
2018-11-20T14:34:08.702Z,26.2
2018-11-20T14:36:05.408Z,26.2
2018-11-20T14:38:05.127Z,26.2
2018-11-20T14:40:05.825Z,26.2
2018-11-20T14:42:05.558Z,25.9
2018-11-20T14:44:05.323Z,26
2018-11-20T14:46:07.538Z,26.1
2018-11-20T14:48:07.929Z,25.9
2018-11-20T14:50:05.115Z,25.9
2018-11-20T14:52:05.869Z,25.9
2018-11-20T14:54:08.130Z,26
2018-11-20T14:56:05.802Z,26
2018-11-20T14:58:25.713Z,25.9
2018-11-20T15:00:15.521Z,26.1
2018-11-20T15:02:05.890Z,26.1
2018-11-20T15:04:05.598Z,26.1
2018-11-20T15:06:07.871Z,25.9
2018-11-20T15:08:08.278Z,26.1
2018-11-20T15:10:05.491Z,26.1
2018-11-20T15:12:05.261Z,26.1
2018-11-20T15:14:06.947Z,26
2018-11-20T15:16:05.638Z,25.9
2018-11-20T15:18:08.072Z,26.1
2018-11-20T15:20:05.884Z,25.9
2018-11-20T15:22:05.532Z,25.9
2018-11-20T15:24:07.757Z,25.9
2018-11-20T15:26:05.441Z,25.9
2018-11-20T15:28:05.184Z,25.9
2018-11-20T15:30:05.099Z,26.1
2018-11-20T15:32:05.816Z,25.9
2018-11-20T15:34:05.800Z,26.1
2018-11-20T15:36:05.444Z,26.1
2018-11-20T15:38:07.677Z,25.9
2018-11-20T15:40:05.510Z,25.9
2018-11-20T15:42:07.416Z,25.9
2018-11-20T15:44:05.168Z,25.9
2018-11-20T15:46:05.977Z,26
2018-11-20T15:48:08.181Z,26.1
2018-11-20T15:50:05.431Z,26.1
2018-11-20T15:52:05.134Z,25.9
2018-11-20T15:54:05.805Z,26.1
2018-11-20T15:56:10.699Z,25.9
2018-11-20T15:58:05.398Z,25.9
2018-11-20T16:00:05.389Z,25.9
2018-11-20T16:02:05.078Z,25.9
2018-11-20T16:04:05.840Z,25.9
2018-11-20T16:06:05.058Z,25.9
2018-11-20T16:08:05.779Z,26
2018-11-20T16:10:05.919Z,26
2018-11-20T16:12:05.683Z,26.1
2018-11-20T16:14:07.936Z,25.9
2018-11-20T16:16:08.459Z,25.9
2018-11-20T16:18:07.872Z,26
2018-11-20T16:20:05.562Z,26
2018-11-20T16:22:05.273Z,25.9
2018-11-20T16:24:05.274Z,25.9
2018-11-20T16:26:08.513Z,25.9
2018-11-20T16:28:05.209Z,25.9
2018-11-20T16:30:10.459Z,25.9
2018-11-20T16:32:05.254Z,25.9
2018-11-20T16:34:05.471Z,25.9
2018-11-20T16:36:05.139Z,25.9
2018-11-20T16:38:05.851Z,25.9
2018-11-20T16:40:05.537Z,25.9
2018-11-20T16:42:05.924Z,25.8
2018-11-20T16:44:07.687Z,25.9
2018-11-20T16:46:05.395Z,25.9
2018-11-20T16:48:05.192Z,25.9
2018-11-20T16:50:05.841Z,25.9
2018-11-20T16:52:08.005Z,26.1
2018-11-20T16:54:05.705Z,25.9
2018-11-20T16:56:05.436Z,25.9
2018-11-20T16:58:05.844Z,25.9
2018-11-20T17:00:13.095Z,26.1
2018-11-20T17:02:05.795Z,25.9
2018-11-20T17:04:05.485Z,25.9
2018-11-20T17:06:05.421Z,25.9
2018-11-20T17:08:05.675Z,25.9
2018-11-20T17:10:05.388Z,25.9
2018-11-20T17:12:06.049Z,25.9
2018-11-20T17:14:05.694Z,26.1
2018-11-20T17:16:05.409Z,25.9
2018-11-20T17:18:05.311Z,25.9
2018-11-20T17:20:11.219Z,25.9
2018-11-20T17:22:06.123Z,25.9
2018-11-20T17:24:05.982Z,26.1
2018-11-20T17:26:10.795Z,25.9
2018-11-20T17:28:05.484Z,25.9
2018-11-20T17:30:05.937Z,25.9
2018-11-20T17:32:05.611Z,25.9
2018-11-20T17:34:05.455Z,26
2018-11-20T17:36:05.266Z,25.9
2018-11-20T17:38:05.943Z,26.1
2018-11-20T17:40:05.826Z,26
2018-11-20T17:42:08.058Z,26
2018-11-20T17:44:08.290Z,26
2018-11-20T17:46:06.015Z,26
2018-11-20T17:48:05.702Z,26
2018-11-20T17:50:08.132Z,26
2018-11-20T17:52:08.491Z,26.3
2018-11-20T17:54:05.329Z,26
2018-11-20T17:56:08.146Z,26.1
2018-11-20T17:58:08.318Z,26.1
2018-11-20T18:00:05.561Z,26.1
2018-11-20T18:02:07.743Z,26.1
2018-11-20T18:04:05.514Z,26.1
2018-11-20T18:06:10.304Z,26.2
2018-11-20T18:08:08.500Z,26.1
2018-11-20T18:10:07.750Z,26
2018-11-20T18:12:05.424Z,26
2018-11-20T18:14:05.154Z,26
2018-11-20T18:16:05.866Z,26.1
2018-11-20T18:18:13.407Z,26.1
2018-11-20T18:20:05.079Z,26.1
2018-11-20T18:22:05.736Z,26.1
2018-11-20T18:24:05.495Z,26.3
2018-11-20T18:26:05.195Z,26.1
2018-11-20T18:28:05.854Z,26.1
2018-11-20T18:30:05.562Z,26.1
2018-11-20T18:32:05.283Z,26.1
2018-11-20T18:34:08.522Z,26.1
2018-11-20T18:36:07.733Z,26.1
2018-11-20T18:38:05.468Z,26.1
2018-11-20T18:40:05.147Z,26
2018-11-20T18:42:05.354Z,26.1
2018-11-20T18:44:05.094Z,26.1
2018-11-20T18:46:08.313Z,26.1
2018-11-20T18:48:10.175Z,26.1
2018-11-20T18:50:05.877Z,26.1
2018-11-20T18:52:05.554Z,26.1
2018-11-20T18:54:05.256Z,26.1
2018-11-20T18:56:05.925Z,26
2018-11-20T18:58:08.145Z,26.1
2018-11-20T19:00:05.888Z,26.1
2018-11-20T19:02:08.134Z,26.2
2018-11-20T19:04:07.916Z,26.1
2018-11-20T19:06:13.230Z,26.2
2018-11-20T19:08:05.956Z,26.2
2018-11-20T19:10:05.248Z,26.1
2018-11-20T19:12:11.004Z,26
2018-11-20T19:14:08.214Z,26.1
2018-11-20T19:16:05.921Z,26
2018-11-20T19:18:20.979Z,26.2
2018-11-20T19:20:05.652Z,26
2018-11-20T19:22:10.401Z,26.1
2018-11-20T19:24:05.109Z,26.1
2018-11-20T19:26:05.866Z,26.1
2018-11-20T19:28:08.102Z,26.3
2018-11-20T19:30:05.838Z,26.3
2018-11-20T19:32:10.616Z,26.3
2018-11-20T19:34:05.300Z,26.3
2018-11-20T19:36:08.136Z,26.2
2018-11-20T19:38:06.026Z,26.2
2018-11-20T19:40:08.275Z,26.2
2018-11-20T19:42:05.201Z,26.2
2018-11-20T19:44:05.928Z,26.1
2018-11-20T19:46:05.636Z,26.1
2018-11-20T19:48:05.325Z,26.3
2018-11-20T19:50:06.014Z,26.3
2018-11-20T19:52:05.247Z,26.3
2018-11-20T19:54:14.545Z,26.3
2018-11-20T19:56:08.067Z,26.3
2018-11-20T19:58:05.278Z,26.1
2018-11-20T20:00:05.479Z,26.3
2018-11-20T20:02:05.179Z,26.3
2018-11-20T20:04:05.949Z,26.3
2018-11-20T20:06:10.681Z,26.1
2018-11-20T20:08:05.449Z,26.2
2018-11-20T20:10:18.301Z,26.2
2018-11-20T20:12:07.907Z,26.2
2018-11-20T20:14:05.583Z,26.2
2018-11-20T20:16:05.249Z,26.2
2018-11-20T20:18:05.451Z,26.4
2018-11-20T20:20:10.284Z,26.2
2018-11-20T20:22:06.060Z,26.2
2018-11-20T20:24:05.290Z,26.2
2018-11-20T20:26:06.072Z,26.2
2018-11-20T20:28:05.357Z,26.4
2018-11-20T20:30:07.596Z,26.2
2018-11-20T20:32:05.796Z,26.4
2018-11-20T20:34:05.650Z,26.3
2018-11-20T20:36:05.853Z,26.5
2018-11-20T20:38:06.400Z,26.6
2018-11-20T20:40:05.087Z,26.7
2018-11-20T20:42:05.431Z,26.7
2018-11-20T20:44:08.701Z,26.7
2018-11-20T20:46:08.013Z,26.6
2018-11-20T20:48:05.948Z,26.8
2018-11-20T20:50:05.656Z,26.7
2018-11-20T20:52:08.089Z,26.7
2018-11-20T20:54:12.882Z,26.7
2018-11-20T20:56:05.694Z,26.7
2018-11-20T20:58:05.391Z,26.7
2018-11-20T21:00:05.269Z,26.7
2018-11-20T21:02:05.091Z,26.7
2018-11-20T21:04:05.768Z,26.7
2018-11-20T21:06:05.456Z,26.7
2018-11-20T21:08:05.159Z,26.7
2018-11-20T21:10:10.702Z,26.7
2018-11-20T21:12:06.797Z,26.7
2018-11-20T21:14:05.779Z,26.7
2018-11-20T21:16:10.747Z,26.7
2018-11-20T21:18:05.642Z,26.7
2018-11-20T21:20:05.432Z,26.7
2018-11-20T21:22:07.850Z,26.7
2018-11-20T21:24:05.547Z,26.7
2018-11-20T21:26:05.195Z,26.7
2018-11-20T21:28:05.836Z,26.7
2018-11-20T21:30:08.063Z,26.7
2018-11-20T21:32:05.772Z,26.9
2018-11-20T21:34:10.323Z,26.8
2018-11-20T21:36:05.617Z,26.8
2018-11-20T21:38:05.393Z,26.8
2018-11-20T21:40:05.054Z,26.8
2018-11-20T21:42:05.753Z,26.8
2018-11-20T21:44:05.463Z,26.9
2018-11-20T21:46:07.764Z,26.9
2018-11-20T21:48:06.752Z,26.9
2018-11-20T21:50:07.966Z,26.9
2018-11-20T21:52:05.804Z,26.9
2018-11-20T21:54:05.717Z,26.9
2018-11-20T21:56:05.482Z,26.9
2018-11-20T21:58:05.354Z,26.9
2018-11-20T22:00:04.986Z,26.9
2018-11-20T22:02:05.181Z,26.9
2018-11-20T22:04:05.086Z,27
2018-11-20T22:06:08.310Z,26.9
2018-11-20T22:08:06.048Z,26.9
2018-11-20T22:10:05.275Z,27
2018-11-20T22:12:05.963Z,27
2018-11-20T22:14:05.683Z,27
2018-11-20T22:16:05.354Z,27
2018-11-20T22:18:07.986Z,26.9
2018-11-20T22:20:05.221Z,26.9
2018-11-20T22:22:08.416Z,26.9
2018-11-20T22:24:05.314Z,26.9
2018-11-20T22:26:05.052Z,26.9
2018-11-20T22:28:08.273Z,26.9
2018-11-20T22:30:06.012Z,26.9
2018-11-20T22:32:05.912Z,27
2018-11-20T22:34:05.631Z,27
2018-11-20T22:36:07.733Z,27
2018-11-20T22:38:05.051Z,27
2018-11-20T22:40:05.841Z,27
2018-11-20T22:42:10.607Z,27.1
2018-11-20T22:44:05.702Z,27.1
2018-11-20T22:46:05.426Z,27.2
2018-11-20T22:48:17.987Z,27.1
2018-11-20T22:50:05.753Z,27.1
2018-11-20T22:52:05.465Z,27.1
2018-11-20T22:54:05.211Z,27.1
2018-11-20T22:56:06.834Z,27
2018-11-20T22:58:09.388Z,27
2018-11-20T23:00:05.617Z,27
2018-11-20T23:02:05.146Z,27
2018-11-20T23:04:05.095Z,27.1
2018-11-20T23:06:08.298Z,27.1
2018-11-20T23:08:05.556Z,27.1
2018-11-20T23:10:05.289Z,27.1
2018-11-20T23:12:05.992Z,27.1
2018-11-20T23:14:08.247Z,27.1
2018-11-20T23:16:08.436Z,27.1
2018-11-20T23:18:05.352Z,27.1
2018-11-20T23:20:05.024Z,27.1
2018-11-20T23:22:05.690Z,27.2
2018-11-20T23:24:05.369Z,27.1
2018-11-20T23:26:05.014Z,27.1
2018-11-20T23:28:10.794Z,27.2
2018-11-20T23:30:07.998Z,27.2
2018-11-20T23:32:05.712Z,27.2
2018-11-20T23:34:05.421Z,27.2
2018-11-20T23:36:05.104Z,27.2
2018-11-20T23:38:05.346Z,27.2
2018-11-20T23:40:05.053Z,27.2
2018-11-20T23:42:05.733Z,27.3
2018-11-20T23:44:05.433Z,27.3
2018-11-20T23:46:05.685Z,27.2
2018-11-20T23:48:07.917Z,27.2
2018-11-20T23:50:05.592Z,27.2
2018-11-20T23:52:05.315Z,27.3
2018-11-20T23:54:08.526Z,27.1
2018-11-20T23:56:05.444Z,27.1
2018-11-20T23:58:05.670Z,27.1
